Weather History for KIIY - March, 2014

Change the Weather History Date:

Thursday, March 20, 2014

  Actual Average (KDBN) Record (KDBN)
Temperature  
Mean Temperature 58 °F -  
Max Temperature 71 °F 72 °F 88 °F (1982)
Min Temperature 46 °F 44 °F 28 °F (2015)
Degree Days  
Heating Degree Days 6    
Growing Degree Days 8 (Base 50)    
Moisture  
Dew Point 39 °F    
Average Humidity 59    
Maximum Humidity 100    
Minimum Humidity 17    
Precipitation  
Precipitation 0.00 in - - ()
Sea Level Pressure  
Sea Level Pressure 30.04 in    
Wind  
Wind Speed 6 mph (WNW)    
Max Wind Speed 15 mph    
Max Gust Speed 21 mph    
Visibility 9 miles    
Events      
Averages and records for this station are not official NWS values.
T = Trace of Precipitation, MM = Missing Value Source: NWS Daily Summary

Daily Weather History Graph

Daily Weather History Graph

Search for Another Location

Airport or City:

Trip Planner

Search our weather history database for the weather conditions in past years. The results will help you decide how hot, cold, wet, or windy it might be!

Date:

Astronomy

Mar. 20, 2014 Rise Set
Actual Time 7:34 AM EDT 7:42 PM EDT
Civil Twilight 7:10 AM EDT 8:07 PM EDT
Nautical Twilight 6:41 AM EDT 8:36 PM EDT
Astronomical Twilight 6:11 AM EDT 9:06 PM EDT
Moon 11:49 PM EDT (3/20) 9:51 AM EDT (3/20)
Length of Visible Light 12h 57m
Length of Day
12h 07m
Waning Gibbous, 84% of the Moon is Illuminated
Mar 20
Waning Gibbous
Mar 23
Last Quarter
Mar 30
New
Apr 7
First Quarter
Apr 15
Full

Hourly Weather History & Observations

Time (EDT) Temp. Windchill Dew Point Humidity Pressure Visibility Wind Dir Wind Speed Gust Speed Precip Events Conditions
12:15 AM 46.4 °F 44.3 °F 46.4 °F 100% 30.07 in 10.0 mi WNW 4.6 mph - N/A   Scattered Clouds
12:35 AM 50.0 °F - 50.0 °F 100% 30.07 in 10.0 mi WNW 5.8 mph - N/A   Scattered Clouds
12:55 AM 51.8 °F - 51.8 °F 100% 30.07 in 10.0 mi West 4.6 mph - N/A   Overcast
1:15 AM 51.8 °F - 51.8 °F 100% 30.06 in 10.0 mi West 4.6 mph - N/A   Overcast
1:35 AM 50.0 °F - 50.0 °F 100% 30.06 in 10.0 mi West 4.6 mph - N/A   Mostly Cloudy
1:55 AM 48.2 °F - 48.2 °F 100% 30.06 in 10.0 mi West 4.6 mph - N/A   Scattered Clouds
2:15 AM 50.0 °F - 50.0 °F 100% 30.05 in 10.0 mi West 4.6 mph - N/A   Clear
2:35 AM 46.4 °F 44.3 °F 46.4 °F 100% 30.05 in 10.0 mi West 4.6 mph - N/A   Clear
2:55 AM 46.4 °F 43.5 °F 46.4 °F 100% 30.05 in 10.0 mi West 5.8 mph - N/A   Clear
3:15 AM 48.2 °F - 48.2 °F 100% 30.04 in 10.0 mi West 5.8 mph - N/A   Clear
3:35 AM 50.0 °F - 50.0 °F 100% 30.03 in 10.0 mi West 6.9 mph - N/A   Clear
3:55 AM 51.8 °F - 51.8 °F 100% 30.03 in 10.0 mi WNW 5.8 mph - N/A   Clear
4:15 AM 51.8 °F - 51.8 °F 100% 30.02 in 10.0 mi WNW 5.8 mph - N/A   Clear
4:35 AM 50.0 °F - 50.0 °F 100% 30.02 in 7.0 mi WNW 4.6 mph - N/A   Clear
4:55 AM 50.0 °F - 50.0 °F 100% 30.03 in 7.0 mi WNW 5.8 mph - N/A   Clear
5:15 AM 50.0 °F - 50.0 °F 100% 30.03 in 7.0 mi West 6.9 mph - N/A   Clear
5:35 AM 51.8 °F - 51.8 °F 100% 30.03 in 10.0 mi West 6.9 mph - N/A   Clear
5:55 AM 51.8 °F - 51.8 °F 100% 30.02 in 10.0 mi WNW 4.6 mph - N/A   Clear
6:15 AM 51.8 °F - 51.8 °F 100% 30.03 in 10.0 mi West 4.6 mph - N/A   Clear
6:35 AM 51.8 °F - 51.8 °F 100% 30.03 in 7.0 mi WNW 3.5 mph - N/A   Clear
6:55 AM 50.0 °F - 50.0 °F 100% 30.03 in 7.0 mi WNW 4.6 mph - N/A   Clear
7:15 AM 50.0 °F - 50.0 °F 100% 30.04 in 7.0 mi West 4.6 mph - N/A   Clear
7:35 AM 50.0 °F - 50.0 °F 100% 30.04 in 7.0 mi WNW 4.6 mph - N/A   Clear
7:55 AM 46.4 °F 45.2 °F 46.4 °F 100% 30.05 in 3.0 mi West 3.5 mph - N/A   Clear
8:15 AM 48.2 °F - 48.2 °F 100% 30.05 in 4.0 mi West 3.5 mph - N/A   Clear
8:35 AM 50.0 °F - 50.0 °F 100% 30.06 in 5.0 mi WNW 6.9 mph - N/A   Clear
8:55 AM 51.8 °F - 51.8 °F 100% 30.06 in 7.0 mi WNW 5.8 mph - N/A   Clear
9:15 AM 53.6 °F - 51.8 °F 94% 30.06 in 7.0 mi WNW 8.1 mph - N/A   Clear
9:35 AM 57.2 °F - 50.0 °F 77% 30.07 in 10.0 mi WNW 6.9 mph - N/A   Clear
9:55 AM 59.0 °F - 48.2 °F 67% 30.07 in 10.0 mi WNW 8.1 mph - N/A   Clear
10:15 AM 59.0 °F - 44.6 °F 59% 30.07 in 10.0 mi WNW 9.2 mph - N/A   Clear
10:35 AM 59.0 °F - 44.6 °F 59% 30.07 in 10.0 mi WNW 8.1 mph - N/A   Clear
10:55 AM 62.6 °F - 44.6 °F 52% 30.08 in 10.0 mi NW 5.8 mph - N/A   Clear
11:15 AM 62.6 °F - 42.8 °F 48% 30.08 in 10.0 mi NW 5.8 mph - N/A   Clear
11:35 AM 62.6 °F - 41.0 °F 45% 30.08 in 10.0 mi West 9.2 mph - N/A   Clear
11:55 AM 64.4 °F - 41.0 °F 42% 30.08 in 10.0 mi WNW 9.2 mph - N/A   Clear
12:15 PM 64.4 °F - 39.2 °F 40% 30.08 in 10.0 mi West 6.9 mph - N/A   Clear
12:35 PM 66.2 °F - 35.6 °F 32% 30.08 in 10.0 mi NW 4.6 mph - N/A   Clear
12:55 PM 66.2 °F - 35.6 °F 32% 30.07 in 10.0 mi West 9.2 mph - N/A   Clear
1:15 PM 68.0 °F - 33.8 °F 28% 30.06 in 10.0 mi North 8.1 mph - N/A   Clear
1:35 PM 68.0 °F - 32.0 °F 26% 30.05 in 10.0 mi WNW 10.4 mph 16.1 mph N/A   Clear
1:55 PM 68.0 °F - 32.0 °F 26% 30.04 in 10.0 mi WNW 10.4 mph - N/A   Clear
2:15 PM 68.0 °F - 32.0 °F 26% 30.04 in 10.0 mi WNW 8.1 mph 17.3 mph N/A   Clear
2:35 PM 69.8 °F - 32.0 °F 25% 30.02 in 10.0 mi NW 8.1 mph - N/A   Clear
2:55 PM 68.0 °F - 30.2 °F 24% 30.02 in 10.0 mi West 15.0 mph 18.4 mph N/A   Clear
3:15 PM 69.8 °F - 32.0 °F 25% 30.01 in 10.0 mi West 10.4 mph 18.4 mph N/A   Clear
3:35 PM 69.8 °F - 28.4 °F 21% 30.01 in 10.0 mi West 11.5 mph 19.6 mph N/A   Clear
3:55 PM 71.6 °F - 26.6 °F 19% 30.01 in 10.0 mi NNW 13.8 mph 20.7 mph N/A   Clear
4:15 PM 69.8 °F - 23.0 °F 17% 30.01 in 10.0 mi NW 8.1 mph 16.1 mph N/A   Clear
4:35 PM 71.6 °F - 28.4 °F 20% 30.00 in 10.0 mi West 8.1 mph 16.1 mph N/A   Clear
4:55 PM 71.6 °F - 28.4 °F 20% 30.00 in 10.0 mi West 13.8 mph 18.4 mph N/A   Clear
5:15 PM 69.8 °F - 26.6 °F 20% 29.99 in 10.0 mi West 11.5 mph 18.4 mph N/A   Clear
5:35 PM 69.8 °F - 23.0 °F 17% 29.99 in 10.0 mi West 13.8 mph - N/A   Clear
5:55 PM 69.8 °F - 24.8 °F 18% 29.99 in 10.0 mi WNW 9.2 mph 16.1 mph N/A   Clear
6:15 PM 69.8 °F - 28.4 °F 21% 29.99 in 10.0 mi WNW 9.2 mph - N/A   Clear
6:35 PM 68.0 °F - 23.0 °F 18% 30.00 in 10.0 mi WNW 10.4 mph 16.1 mph N/A   Clear
6:55 PM 68.0 °F - 26.6 °F 21% 30.01 in 10.0 mi NW 4.6 mph - N/A   Clear
7:15 PM 64.4 °F - 28.4 °F 26% 30.01 in 10.0 mi Calm Calm - N/A   Clear
7:35 PM 62.6 °F - 32.0 °F 32% 30.02 in 10.0 mi West 4.6 mph - N/A   Clear
7:55 PM 59.0 °F - 35.6 °F 42% 30.02 in 10.0 mi West 6.9 mph - N/A   Clear
8:15 PM 59.0 °F - 32.0 °F 36% 30.03 in 10.0 mi West 5.8 mph - N/A   Clear
8:35 PM 59.0 °F - 30.2 °F 34% 30.03 in 10.0 mi West 8.1 mph - N/A   Clear
8:55 PM 59.0 °F - 28.4 °F 31% 30.04 in 10.0 mi West 8.1 mph - N/A   Clear
9:15 PM 59.0 °F - 28.4 °F 31% 30.05 in 10.0 mi West 5.8 mph - N/A   Clear
9:35 PM 59.0 °F - 26.6 °F 29% 30.05 in 10.0 mi West 6.9 mph - N/A   Clear
9:55 PM 59.0 °F - 28.4 °F 31% 30.06 in 10.0 mi West 8.1 mph - N/A   Clear
10:15 PM 57.2 °F - 26.6 °F 31% 30.05 in 10.0 mi West 6.9 mph - N/A   Clear
10:35 PM 55.4 °F - 26.6 °F 33% 30.06 in 10.0 mi West 6.9 mph - N/A   Clear
10:55 PM 53.6 °F - 26.6 °F 35% 30.07 in 10.0 mi West 6.9 mph - N/A   Clear
11:15 PM 53.6 °F - 26.6 °F 35% 30.07 in 10.0 mi West 6.9 mph - N/A   Clear
11:35 PM 53.6 °F - 28.4 °F 38% 30.09 in 10.0 mi WNW 5.8 mph - N/A   Clear
11:55 PM 53.6 °F - 28.4 °F 38% 30.09 in 10.0 mi WNW 6.9 mph - N/A   Clear